Time;durP1;ratioP1;P1;durP2;ratioP2;P2;SDS_P1;SDS_P2;PMS_P1;PMS_P2;Temp;Humidity;BMP_temperature;BMP_pressure;BME280_temperature;BME280_humidity;BME280_pressure;Samples;Min_cycle;Max_cycle;Signal;HPM_P1;HPM_P2
2023/10/10 00:00:23;;;;;;;0.40;0.40;;;;;;;17.21;54.77;97368.91;29395;215;63015;-57
2023/10/10 00:00:56;;;;;;;0.40;0.40;;;;;;;17.18;54.85;97369.56;29395;238;63005;-57
2023/10/10 00:01:30;;;;;;;0.40;0.40;;;;;;;17.18;54.71;97369.56;29395;216;63009;-70
2023/10/10 00:02:04;;;;;;;0.50;0.50;;;;;;;17.17;54.94;97370.69;29395;224;63005;-71
2023/10/10 00:02:36;;;;;;;0.40;0.40;;;;;;;17.15;54.52;97372.94;29395;304;63009;-57
2023/10/10 00:03:08;;;;;;;0.40;0.40;;;;;;;17.14;54.83;97368.59;29394;255;64009;-57
2023/10/10 00:03:42;;;;;;;0.40;0.40;;;;;;;17.14;54.75;97368.59;29395;261;63026;-57
2023/10/10 00:04:19;;;;;;;0.40;0.40;;;;;;;17.13;55.07;97366.97;29395;331;63004;-57
2023/10/10 00:04:50;;;;;;;0.40;0.40;;;;;;;17.13;54.73;97374.38;29395;224;63022;-57
2023/10/10 00:05:33;;;;;;;0.40;0.40;;;;;;;17.12;54.74;97370.84;29395;197;63004;-58
2023/10/10 00:06:08;;;;;;;0.40;0.40;;;;;;;17.11;54.85;97369.22;29395;245;63024;-57
2023/10/10 00:06:42;;;;;;;0.40;0.40;;;;;;;17.05;56.14;97376.81;29395;237;63005;-57
2023/10/10 00:07:18;;;;;;;0.40;0.40;;;;;;;17.04;56.30;97374.38;29395;235;63009;-68
2023/10/10 00:07:50;;;;;;;0.40;0.40;;;;;;;17.02;55.91;97376.63;29395;281;63005;-57
2023/10/10 00:08:28;;;;;;;0.40;0.40;;;;;;;17.00;55.68;97379.69;29394;197;64013;-69
2023/10/10 00:08:59;;;;;;;0.40;0.40;;;;;;;16.99;55.45;97372.59;29395;205;63005;-58
2023/10/10 00:09:31;;;;;;;0.40;0.40;;;;;;;16.98;55.62;97370.22;29395;238;63009;-57
2023/10/10 00:10:12;;;;;;;0.40;0.40;;;;;;;16.97;55.43;97374.88;29395;268;63004;-58
2023/10/10 00:10:50;;;;;;;0.40;0.40;;;;;;;16.97;55.75;97374.09;29416;330;64006;-55
2023/10/10 00:11:21;;;;;;;0.40;0.40;;;;;;;16.97;55.70;97380.38;29394;199;64009;-55
2023/10/10 00:11:53;;;;;;;0.50;0.50;;;;;;;16.96;55.64;97375.22;29395;270;63009;-57
2023/10/10 00:12:29;;;;;;;0.40;0.40;;;;;;;16.96;55.63;97378.75;29395;264;63004;-68
2023/10/10 00:13:01;;;;;;;0.40;0.40;;;;;;;16.95;56.80;97387.31;29395;215;63009;-70
2023/10/10 00:13:32;;;;;;;0.40;0.40;;;;;;;16.93;56.24;97379.41;29395;219;63005;-57
2023/10/10 00:14:15;;;;;;;0.40;0.40;;;;;;;16.90;56.24;97384.72;29395;202;63009;-59
2023/10/10 00:14:50;;;;;;;0.40;0.40;;;;;;;16.88;56.39;97384.22;29395;200;63005;-57
2023/10/10 00:15:32;;;;;;;0.40;0.40;;;;;;;16.86;56.10;97386.47;29395;223;63009;-72
2023/10/10 00:16:05;;;;;;;0.40;0.40;;;;;;;16.85;55.97;97379.37;29395;273;63018;-57
2023/10/10 00:16:40;;;;;;;0.45;0.45;;;;;;;16.84;56.35;97375.03;29394;237;64013;-58
2023/10/10 00:17:13;;;;;;;0.40;0.40;;;;;;;16.84;55.95;97375.84;29395;199;63004;-69
2023/10/10 00:17:46;;;;;;;0.40;0.40;;;;;;;16.83;55.97;97378.91;29395;234;63009;-57
2023/10/10 00:18:19;;;;;;;0.40;0.40;;;;;;;16.81;55.69;97378.41;29395;345;63004;-58
2023/10/10 00:18:51;;;;;;;0.40;0.40;;;;;;;16.80;56.20;97385.03;29395;323;63008;-57
2023/10/10 00:20:35;;;;;;;0.50;0.50;;;;;;;16.75;56.36;97377.75;29395;222;63025;-70
2023/10/10 00:21:08;;;;;;;0.40;0.40;;;;;;;16.72;55.85;97378.41;29395;204;63005;-58
2023/10/10 00:21:40;;;;;;;0.40;0.40;;;;;;;16.71;55.75;97377.59;29394;238;64013;-68
2023/10/10 00:22:12;;;;;;;0.40;0.40;;;;;;;16.71;55.77;97374.03;29395;226;63005;-69
2023/10/10 00:22:47;;;;;;;0.40;0.40;;;;;;;16.69;55.94;97377.09;29395;214;63009;-70
2023/10/10 00:23:20;;;;;;;0.40;0.40;;;;;;;16.69;55.72;97371.63;29395;292;63005;-68
2023/10/10 00:23:53;;;;;;;0.40;0.40;;;;;;;16.68;55.88;97367.25;29395;198;63009;-68
2023/10/10 00:24:31;;;;;;;0.40;0.40;;;;;;;16.69;56.17;97373.56;29394;202;64009;-57
2023/10/10 00:25:04;;;;;;;0.40;0.40;;;;;;;16.68;56.08;97361.78;29395;212;63023;-71
2023/10/10 00:25:37;;;;;;;0.40;0.40;;;;;;;16.67;55.81;97368.38;29395;198;63004;-68
2023/10/10 00:26:14;;;;;;;0.40;0.40;;;;;;;16.68;55.90;97372.75;29395;219;63009;-70
2023/10/10 00:26:49;;;;;;;0.40;0.40;;;;;;;16.69;55.83;97373.56;29395;274;63004;-57
2023/10/10 00:27:23;;;;;;;0.40;0.40;;;;;;;16.68;56.08;97367.25;29395;225;63005;-70
2023/10/10 00:27:59;;;;;;;0.40;0.40;;;;;;;16.68;55.95;97369.19;29395;219;63005;-68
2023/10/10 00:28:33;;;;;;;0.40;0.40;;;;;;;16.68;55.94;97369.19;29395;205;63005;-67
2023/10/10 00:29:06;;;;;;;0.40;0.40;;;;;;;16.68;55.87;97367.25;29395;234;63005;-56
2023/10/10 00:29:43;;;;;;;0.45;0.45;;;;;;;16.66;56.11;97369.53;29394;251;64013;-57
2023/10/10 00:30:16;;;;;;;0.50;0.50;;;;;;;16.67;56.11;97371.13;29394;237;64009;-56
2023/10/10 00:30:49;;;;;;;0.50;0.50;;;;;;;16.65;56.27;97367.91;29395;266;63009;-56
2023/10/10 00:31:26;;;;;;;0.43;0.43;;;;;;;16.64;56.05;97362.75;29395;217;63005;-58
2023/10/10 00:31:58;;;;;;;0.50;0.50;;;;;;;16.62;56.02;97368.53;29395;214;63009;-70
2023/10/10 00:32:35;;;;;;;0.50;0.50;;;;;;;16.61;56.10;97364.19;29394;214;64004;-56
2023/10/10 00:33:07;;;;;;;0.40;0.40;;;;;;;16.61;56.14;97372.41;29395;217;63009;-69
2023/10/10 00:33:38;;;;;;;0.40;0.40;;;;;;;16.60;55.81;97365.31;29395;258;63004;-56
2023/10/10 00:34:10;;;;;;;0.40;0.40;;;;;;;16.60;56.25;97367.25;29395;298;63026;-70
2023/10/10 00:34:48;;;;;;;0.40;0.40;;;;;;;16.59;55.97;97363.69;29395;210;63004;-57
2023/10/10 00:35:19;;;;;;;0.40;0.40;;;;;;;16.60;56.18;97365.31;29394;203;64014;-69
2023/10/10 00:35:51;;;;;;;0.40;0.40;;;;;;;16.61;56.03;97364.19;29395;254;63005;-56
2023/10/10 00:36:23;;;;;;;0.40;0.40;;;;;;;16.60;56.15;97359.84;29395;381;63009;-56
2023/10/10 00:36:58;;;;;;;0.40;0.40;;;;;;;16.61;55.46;97355.16;29395;292;63013;-57
2023/10/10 00:37:34;;;;;;;0.47;0.47;;;;;;;16.62;55.77;97354.84;29395;197;63009;-56
2023/10/10 00:38:06;;;;;;;0.40;0.40;;;;;;;16.63;55.98;97358.38;29395;359;63005;-57
2023/10/10 00:38:37;;;;;;;0.43;0.43;;;;;;;16.64;55.64;97355.34;29394;221;64013;-68
2023/10/10 00:40:00;;;;;;;0.40;0.40;;;;;;;16.65;55.80;97358.88;29395;248;63009;-56
2023/10/10 00:40:38;;;;;;;0.40;0.40;;;;;;;16.65;55.81;97356.13;29394;236;64009;-56
2023/10/10 00:41:10;;;;;;;0.40;0.40;;;;;;;16.65;55.77;97356.94;29395;203;63009;-56
2023/10/10 00:41:51;;;;;;;0.40;0.40;;;;;;;16.65;55.88;97361.63;29395;247;63004;-69
2023/10/10 00:42:40;;;;;;;0.40;0.40;;;;;;;16.66;55.76;97358.56;29417;203;63009;-56
2023/10/10 00:43:24;;;;;;;0.40;0.40;;;;;;;16.64;55.95;97352.59;29395;197;63005;-70
2023/10/10 00:43:56;;;;;;;0.40;0.40;;;;;;;16.65;56.27;97356.13;29395;208;63009;-68
2023/10/10 00:44:27;;;;;;;0.40;0.40;;;;;;;16.65;55.91;97356.94;29395;228;63005;-57
2023/10/10 00:45:04;;;;;;;0.40;0.40;;;;;;;16.67;55.95;97353.88;29394;374;64013;-68
2023/10/10 00:45:36;;;;;;;0.40;0.40;;;;;;;16.67;55.94;97349.22;29395;198;63005;-66
2023/10/10 00:46:11;;;;;;;0.40;0.40;;;;;;;16.68;55.90;97345.34;29395;298;63009;-58
2023/10/10 00:46:47;;;;;;;0.40;0.40;;;;;;;16.68;55.95;97350.81;29395;216;63004;-68
2023/10/10 00:47:24;;;;;;;0.40;0.40;;;;;;;16.68;56.02;97350.03;29395;281;63023;-68
2023/10/10 00:47:59;;;;;;;0.40;0.40;;;;;;;16.69;55.53;97351.63;29395;329;63004;-68
2023/10/10 00:48:38;;;;;;;0.40;0.40;;;;;;;16.72;55.11;97345.50;29395;222;63009;-68
2023/10/10 00:49:13;;;;;;;0.50;0.50;;;;;;;16.73;54.04;97339.72;29395;203;63004;-57
2023/10/10 00:49:46;;;;;;;0.40;0.40;;;;;;;16.77;54.28;97339.06;29395;197;63008;-69
2023/10/10 00:50:18;;;;;;;0.40;0.40;;;;;;;16.80;54.36;97338.44;29394;240;64009;-68
2023/10/10 00:51:05;;;;;;;0.40;0.40;;;;;;;16.83;54.39;97337.78;29395;247;63009;-57
2023/10/10 00:51:39;;;;;;;0.40;0.40;;;;;;;16.83;54.38;97335.06;29394;218;64009;-69
2023/10/10 00:52:15;;;;;;;0.40;0.40;;;;;;;16.84;54.42;97331.19;29395;233;63009;-68
2023/10/10 00:52:50;;;;;;;0.40;0.40;;;;;;;16.84;54.36;97332.00;29395;299;63005;-68
2023/10/10 00:53:23;;;;;;;0.40;0.40;;;;;;;16.85;54.30;97338.28;29395;220;63009;-70
2023/10/10 00:54:16;;;;;;;0.40;0.40;;;;;;;16.86;53.96;97334.41;29395;232;63005;-57
2023/10/10 00:54:46;;;;;;;0.40;0.40;;;;;;;16.87;54.25;97327.81;29417;224;63009;-69
2023/10/10 00:55:24;;;;;;;0.40;0.40;;;;;;;16.88;54.19;97327.47;29395;218;63015;-69
2023/10/10 00:55:56;;;;;;;0.40;0.40;;;;;;;16.92;53.19;97327.63;29394;231;64013;-56
2023/10/10 00:56:30;;;;;;;0.40;0.40;;;;;;;16.94;53.03;97330.88;29395;284;63018;-57
2023/10/10 00:57:08;;;;;;;0.40;0.40;;;;;;;16.97;53.43;97327.47;29395;281;63008;-70
2023/10/10 00:57:40;;;;;;;0.40;0.40;;;;;;;17.00;53.34;97324.06;29395;331;63005;-69
2023/10/10 00:58:13;;;;;;;0.40;0.40;;;;;;;17.01;53.21;97326.47;29394;253;64014;-56
2023/10/10 00:58:46;;;;;;;0.50;0.50;;;;;;;17.03;53.21;97328.91;29395;270;63005;-57
2023/10/10 00:59:19;;;;;;;0.50;0.50;;;;;;;17.04;53.52;97328.59;29395;295;63009;-57
2023/10/10 00:59:54;;;;;;;0.40;0.40;;;;;;;17.04;53.03;97325.03;29395;205;63005;-57
2023/10/10 01:00:29;;;;;;;0.40;0.40;;;;;;;17.05;53.25;97321.16;29395;231;63009;-57
2023/10/10 01:01:04;;;;;;;0.40;0.40;;;;;;;17.06;53.09;97322.78;29395;217;63005;-58
2023/10/10 01:01:35;;;;;;;0.40;0.40;;;;;;;17.06;53.09;97328.25;29394;261;64013;-56
2023/10/10 01:02:10;;;;;;;0.40;0.40;;;;;;;17.05;53.28;97324.72;29394;374;64009;-69
2023/10/10 01:02:45;;;;;;;0.40;0.40;;;;;;;17.07;53.49;97318.91;29395;336;63009;-57
2023/10/10 01:03:20;;;;;;;0.40;0.40;;;;;;;17.10;52.72;97318.25;29395;231;63004;-70
2023/10/10 01:03:53;;;;;;;0.47;0.47;;;;;;;17.10;52.09;97321.00;29394;199;64013;-70
2023/10/10 01:04:39;;;;;;;0.40;0.40;;;;;;;17.10;52.45;97321.00;29395;199;63004;-57
2023/10/10 01:05:13;;;;;;;0.50;0.50;;;;;;;17.12;52.50;97326.97;29395;217;63024;-70
2023/10/10 01:05:52;;;;;;;0.40;0.40;;;;;;;17.12;52.74;97321.47;29395;270;63005;-58
2023/10/10 01:06:26;;;;;;;0.40;0.40;;;;;;;17.14;52.45;97321.97;29395;202;63009;-70
2023/10/10 01:07:03;;;;;;;0.40;0.40;;;;;;;17.14;52.91;97319.22;29395;223;63005;-69
2023/10/10 01:07:35;;;;;;;0.40;0.40;;;;;;;17.14;52.62;97330.19;29395;211;63009;-58
2023/10/10 01:08:07;;;;;;;0.40;0.40;;;;;;;17.16;52.84;97327.13;29395;252;63005;-68
2023/10/10 01:08:50;;;;;;;0.40;0.40;;;;;;;17.15;52.82;97329.06;29394;224;64013;-68
2023/10/10 01:09:33;;;;;;;0.40;0.40;;;;;;;17.15;52.55;97323.59;29395;196;63015;-58
2023/10/10 01:10:12;;;;;;;0.40;0.40;;;;;;;17.16;52.55;97327.13;29395;241;63009;-57
2023/10/10 01:10:47;;;;;;;0.43;0.43;;;;;;;17.14;52.55;97324.72;29395;210;63000;-57
2023/10/10 01:11:19;;;;;;;0.40;0.40;;;;;;;17.13;52.94;97328.56;29395;202;63016;-57
2023/10/10 01:11:51;;;;;;;0.40;0.40;;;;;;;17.11;53.04;97325.34;29394;277;64008;-57
2023/10/10 01:12:25;;;;;;;0.40;0.40;;;;;;;17.11;52.82;97324.53;29394;226;64013;-70
2023/10/10 01:12:58;;;;;;;0.40;0.40;;;;;;;17.10;53.03;97329.22;29395;234;63005;-56
2023/10/10 01:13:30;;;;;;;0.40;0.40;;;;;;;17.10;53.28;97329.22;29395;233;63009;-57
2023/10/10 01:14:03;;;;;;;0.30;0.30;;;;;;;17.11;53.31;97330.03;29394;216;64009;-56
2023/10/10 01:14:38;;;;;;;0.40;0.40;;;;;;;17.10;53.85;97334.72;29395;231;63009;-58
2023/10/10 01:15:15;;;;;;;0.40;0.40;;;;;;;17.12;53.55;97337.12;29395;222;63005;-57
2023/10/10 01:15:46;;;;;;;0.40;0.40;;;;;;;17.13;53.72;97336.81;29395;216;63026;-67
2023/10/10 01:16:24;;;;;;;0.40;0.40;;;;;;;17.14;54.17;97337.62;29395;209;63000;-71
2023/10/10 01:16:58;;;;;;;0.40;0.40;;;;;;;17.13;54.58;97345.03;29395;196;63009;-56
2023/10/10 01:17:30;;;;;;;0.40;0.40;;;;;;;17.14;54.79;97340.34;29394;243;64009;-57
2023/10/10 01:18:13;;;;;;;0.40;0.40;;;;;;;17.15;54.73;97336.47;29395;202;63009;-68
2023/10/10 01:18:51;;;;;;;0.37;0.37;;;;;;;17.15;54.90;97342.78;29395;215;63014;-58
2023/10/10 01:19:28;;;;;;;0.40;0.40;;;;;;;17.15;54.99;97341.97;29394;210;64008;-70
2023/10/10 01:20:24;;;;;;;0.40;0.40;;;;;;;17.14;55.01;97337.62;29395;198;63004;-69
2023/10/10 01:20:56;;;;;;;0.40;0.40;;;;;;;17.13;55.17;97334.06;29395;207;63009;-57
2023/10/10 01:21:32;;;;;;;0.40;0.40;;;;;;;17.11;55.06;97336.31;29395;206;63005;-57
2023/10/10 01:22:16;;;;;;;0.40;0.40;;;;;;;17.11;55.44;97341.81;29395;213;63009;-71
2023/10/10 01:22:49;;;;;;;0.40;0.40;;;;;;;17.10;55.58;97329.22;29394;196;64009;-69
2023/10/10 01:23:26;;;;;;;0.40;0.40;;;;;;;17.08;55.67;97329.56;29395;205;63009;-69
2023/10/10 01:24:54;;;;;;;0.40;0.40;;;;;;;17.10;55.93;97334.72;29395;216;63009;-57
2023/10/10 01:26:17;;;;;;;0.40;0.40;;;;;;;17.07;55.96;97332.63;29417;202;63013;-56
2023/10/10 01:26:51;;;;;;;0.40;0.40;;;;;;;17.07;55.96;97335.34;29395;230;63008;-57
2023/10/10 01:27:22;;;;;;;0.40;0.40;;;;;;;17.06;56.07;97339.22;29394;357;64002;-71
2023/10/10 01:27:58;;;;;;;0.40;0.40;;;;;;;17.05;56.42;97332.13;29394;288;64009;-57
2023/10/10 01:28:35;;;;;;;0.40;0.40;;;;;;;17.03;56.28;97334.37;29395;222;63009;-56
2023/10/10 01:29:25;;;;;;;0.50;0.50;;;;;;;17.03;56.42;97334.37;29395;204;63005;-69
2023/10/10 01:30:17;;;;;;;0.40;0.40;;;;;;;17.02;56.78;97339.06;29394;235;64013;-57
2023/10/10 01:31:10;;;;;;;0.50;0.50;;;;;;;17.00;56.49;97324.06;29417;204;63005;-69
2023/10/10 01:31:45;;;;;;;0.40;0.40;;;;;;;16.99;57.21;97331.47;29395;302;63009;-69
2023/10/10 01:32:18;;;;;;;0.40;0.40;;;;;;;16.98;57.15;97337.31;29395;206;63004;-70
2023/10/10 01:32:50;;;;;;;0.40;0.40;;;;;;;16.98;57.19;97334.56;29395;204;63009;-56
2023/10/10 01:34:30;;;;;;;0.40;0.40;;;;;;;16.98;57.14;97332.59;29394;377;64013;-70
2023/10/10 01:35:02;;;;;;;0.40;0.40;;;;;;;16.99;57.38;97327.94;29395;261;63005;-69
2023/10/10 01:35:34;;;;;;;0.40;0.40;;;;;;;17.02;57.18;97330.03;29395;313;63012;-57
2023/10/10 01:36:19;;;;;;;0.40;0.40;;;;;;;17.01;57.03;97326.47;29395;239;63005;-57
2023/10/10 01:36:50;;;;;;;0.40;0.40;;;;;;;17.02;57.17;97327.28;29395;212;63009;-68
2023/10/10 01:37:29;;;;;;;0.40;0.40;;;;;;;17.03;57.09;97323.41;29395;202;63010;-69
2023/10/10 01:38:01;;;;;;;0.40;0.40;;;;;;;17.03;57.36;97326.97;29395;247;63009;-57
2023/10/10 01:39:07;;;;;;;0.40;0.40;;;;;;;17.05;57.13;97323.91;29395;210;63016;-70
2023/10/10 01:40:16;;;;;;;0.40;0.40;;;;;;;17.09;57.43;97322.12;29394;213;64013;-67
2023/10/10 01:40:54;;;;;;;0.40;0.40;;;;;;;17.08;57.06;97321.31;29395;251;63004;-56
2023/10/10 01:41:38;;;;;;;0.40;0.40;;;;;;;17.07;57.33;97322.44;29395;268;63008;-57
2023/10/10 01:42:11;;;;;;;0.40;0.40;;;;;;;17.07;57.20;97318.91;29395;283;63005;-56
2023/10/10 01:42:59;;;;;;;0.40;0.40;;;;;;;17.07;57.34;97322.44;29395;235;63023;-56
2023/10/10 01:43:32;;;;;;;0.40;0.40;;;;;;;17.07;57.45;97325.19;29395;242;63005;-67
2023/10/10 01:45:10;;;;;;;0.40;0.40;;;;;;;17.09;57.86;97322.12;29394;216;64009;-56
2023/10/10 01:45:41;;;;;;;0.50;0.50;;;;;;;17.08;57.82;97326.81;29395;267;63009;-56
2023/10/10 01:46:28;;;;;;;0.43;0.43;;;;;;;17.07;57.61;97329.88;29395;291;63004;-57
2023/10/10 01:46:59;;;;;;;0.40;0.40;;;;;;;17.06;57.74;97323.59;29395;214;63009;-58
2023/10/10 01:47:34;;;;;;;0.50;0.50;;;;;;;17.06;57.57;97326.31;29395;208;63017;-57
2023/10/10 01:48:08;;;;;;;0.47;0.47;;;;;;;17.06;57.68;97329.06;29395;389;63023;-68
2023/10/10 01:48:43;;;;;;;0.40;0.40;;;;;;;17.05;57.95;97321.97;29395;228;63016;-57
2023/10/10 01:49:20;;;;;;;0.40;0.40;;;;;;;17.03;57.81;97323.41;29395;234;63008;-71
2023/10/10 01:49:52;;;;;;;0.40;0.40;;;;;;;17.03;57.88;97323.41;29395;223;63005;-71
2023/10/10 01:50:30;;;;;;;0.40;0.40;;;;;;;17.06;58.04;97326.31;29394;233;64014;-69
2023/10/10 01:51:02;;;;;;;0.40;0.40;;;;;;;17.04;58.15;97327.78;29395;202;63005;-70
2023/10/10 01:51:33;;;;;;;0.40;0.40;;;;;;;17.04;58.06;97319.56;29395;206;63009;-57
2023/10/10 01:52:17;;;;;;;0.50;0.50;;;;;;;17.01;58.15;97328.41;29395;224;63005;-70
2023/10/10 01:52:50;;;;;;;0.40;0.40;;;;;;;16.98;58.48;97324.38;29395;218;63009;-71
2023/10/10 01:53:21;;;;;;;0.40;0.40;;;;;;;16.97;57.90;97324.75;29394;224;64009;-69
2023/10/10 01:53:55;;;;;;;0.40;0.40;;;;;;;16.96;57.92;97325.87;29395;222;63009;-57
2023/10/10 01:54:41;;;;;;;0.40;0.40;;;;;;;16.94;58.11;97325.37;29395;213;63011;-57
2023/10/10 01:55:12;;;;;;;0.45;0.45;;;;;;;16.92;58.07;97322.97;29395;220;63009;-70
2023/10/10 01:55:47;;;;;;;0.40;0.40;;;;;;;16.91;58.39;97326.84;29395;218;63004;-57
2023/10/10 01:56:19;;;;;;;0.40;0.40;;;;;;;16.90;58.28;97332.63;29395;235;63008;-57
2023/10/10 01:56:56;;;;;;;0.45;0.45;;;;;;;16.88;58.11;97321.19;29395;212;63013;-56
2023/10/10 01:57:27;;;;;;;0.40;0.40;;;;;;;16.86;58.71;97327.00;29395;247;63009;-57
2023/10/10 01:58:01;;;;;;;0.40;0.40;;;;;;;16.85;58.31;97332.78;29395;226;63005;-57
2023/10/10 01:58:36;;;;;;;0.40;0.40;;;;;;;16.82;59.07;97334.25;29394;241;64014;-71
2023/10/10 01:59:13;;;;;;;0.40;0.40;;;;;;;16.79;59.52;97336.81;29395;195;63005;-69
2023/10/10 01:59:44;;;;;;;0.40;0.40;;;;;;;16.73;61.34;97336.97;29395;247;63009;-69
2023/10/10 02:00:26;;;;;;;0.40;0.40;;;;;;;16.69;60.50;97346.16;29395;203;63005;-57
2023/10/10 02:00:58;;;;;;;0.40;0.40;;;;;;;16.64;61.27;97341.63;29395;197;63009;-58
2023/10/10 02:01:31;;;;;;;0.40;0.40;;;;;;;16.61;60.84;97336.78;29395;204;63004;-70
2023/10/10 02:02:11;;;;;;;0.40;0.40;;;;;;;16.59;60.26;97341.78;29395;273;63009;-57
2023/10/10 02:02:42;;;;;;;0.40;0.40;;;;;;;16.57;61.64;97344.03;29395;210;63004;-57
2023/10/10 02:03:13;;;;;;;0.40;0.40;;;;;;;16.53;61.81;97343.06;29395;248;63009;-69
2023/10/10 02:03:48;;;;;;;0.40;0.40;;;;;;;16.49;62.58;97342.09;29394;219;64008;-58
2023/10/10 02:04:22;;;;;;;0.40;0.40;;;;;;;16.46;61.53;97337.25;29395;218;63008;-57
2023/10/10 02:04:59;;;;;;;0.43;0.43;;;;;;;16.42;61.67;97342.56;29395;214;63005;-57
2023/10/10 02:06:34;;;;;;;0.40;0.40;;;;;;;16.34;62.22;97350.75;29395;278;63005;-57
2023/10/10 02:07:13;;;;;;;0.40;0.40;;;;;;;16.30;63.90;97349.75;29395;242;63009;-72
2023/10/10 02:07:53;;;;;;;0.50;0.50;;;;;;;16.23;64.24;97357.66;29417;197;63005;-69
2023/10/10 02:08:26;;;;;;;0.40;0.40;;;;;;;16.17;64.34;97356.19;29394;202;64013;-70
2023/10/10 02:09:11;;;;;;;0.40;0.40;;;;;;;16.13;63.93;97349.72;29395;225;63004;-71
2023/10/10 02:09:43;;;;;;;0.40;0.40;;;;;;;16.09;63.96;97355.03;29395;262;63009;-57
2023/10/10 02:10:18;;;;;;;0.40;0.40;;;;;;;16.06;64.45;97356.47;29394;239;64009;-70
2023/10/10 02:10:50;;;;;;;0.40;0.40;;;;;;;16.01;65.07;97353.88;29395;280;63009;-58
2023/10/10 02:11:24;;;;;;;0.40;0.40;;;;;;;15.95;66.19;97366.06;29395;207;63004;-69
2023/10/10 02:12:08;;;;;;;0.43;0.43;;;;;;;15.91;65.85;97362.38;29395;369;63008;-57
2023/10/10 02:12:45;;;;;;;0.40;0.40;;;;;;;15.88;65.81;97354.00;29395;245;63006;-57
2023/10/10 02:13:17;;;;;;;0.50;0.50;;;;;;;15.86;65.61;97359.78;29395;228;63026;-56
2023/10/10 02:13:49;;;;;;;0.43;0.43;;;;;;;15.83;65.80;97357.66;29395;226;63005;-69
2023/10/10 02:14:25;;;;;;;0.45;0.45;;;;;;;15.81;65.91;97357.19;29395;203;63013;-58
2023/10/10 02:14:58;;;;;;;0.50;0.50;;;;;;;15.76;65.71;97354.56;29395;239;63005;-56
2023/10/10 02:15:34;;;;;;;0.50;0.50;;;;;;;15.73;65.80;97355.19;29394;273;64013;-57
2023/10/10 02:16:11;;;;;;;0.50;0.50;;;;;;;15.71;65.12;97354.72;29394;377;64009;-57
2023/10/10 02:16:42;;;;;;;0.50;0.50;;;;;;;15.70;65.04;97351.16;29395;203;63009;-58
2023/10/10 02:17:26;;;;;;;0.50;0.50;;;;;;;15.70;65.38;97353.09;29395;202;63004;-57
2023/10/10 02:18:04;;;;;;;0.50;0.50;;;;;;;15.68;65.01;97347.13;29395;246;63009;-70
2023/10/10 02:18:39;;;;;;;0.40;0.40;;;;;;;15.69;64.73;97348.75;29395;253;63004;-71
2023/10/10 02:19:27;;;;;;;0.50;0.50;;;;;;;15.69;65.70;97355.03;29395;287;63008;-56
2023/10/10 02:20:51;;;;;;;0.40;0.40;;;;;;;15.66;65.29;97352.91;29394;223;64014;-57
2023/10/10 02:21:35;;;;;;;0.40;0.40;;;;;;;15.67;65.17;97353.72;29395;336;63005;-56
2023/10/10 02:22:22;;;;;;;0.40;0.40;;;;;;;15.68;64.99;97358.06;29377;241;125009;-58
2023/10/10 02:23:01;;;;;;;0.40;0.40;;;;;;;15.67;65.63;97359.19;29377;218;125005;-56
2023/10/10 02:23:32;;;;;;;0.47;0.47;;;;;;;15.65;66.13;97356.78;29395;286;63009;-70
2023/10/10 02:25:55;;;;;;;0.40;0.40;;;;;;;15.56;65.40;97353.19;29394;220;64008;-57
2023/10/10 02:26:35;;;;;;;0.40;0.40;;;;;;;15.56;65.91;97352.38;29395;202;63008;-71
2023/10/10 02:27:12;;;;;;;0.40;0.40;;;;;;;15.57;65.40;97348.53;29395;198;63004;-70
2023/10/10 02:27:54;;;;;;;0.47;0.47;;;;;;;15.56;65.31;97347.72;29395;213;63009;-56
2023/10/10 02:28:43;;;;;;;0.40;0.40;;;;;;;15.56;65.56;97345.00;29395;342;63005;-70
2023/10/10 02:29:21;;;;;;;0.40;0.40;;;;;;;15.56;65.10;97344.16;29394;234;64013;-69
2023/10/10 02:30:03;;;;;;;0.50;0.50;;;;;;;15.55;65.78;97346.09;29395;251;63005;-69
2023/10/10 02:30:36;;;;;;;0.40;0.40;;;;;;;15.54;66.39;97351.88;29395;277;63009;-56
2023/10/10 02:31:09;;;;;;;0.40;0.40;;;;;;;15.53;65.93;97347.53;29395;327;63004;-57
2023/10/10 02:31:51;;;;;;;0.40;0.40;;;;;;;15.54;65.77;97346.41;29395;294;63012;-56
2023/10/10 02:32:24;;;;;;;0.50;0.50;;;;;;;15.53;66.07;97348.31;29395;249;63013;-58
2023/10/10 02:32:57;;;;;;;0.50;0.50;;;;;;;15.53;66.20;97353.00;29395;250;63009;-57
2023/10/10 02:33:31;;;;;;;0.43;0.43;;;;;;;15.50;65.76;97337.19;29394;235;64008;-57
2023/10/10 02:34:03;;;;;;;0.40;0.40;;;;;;;15.53;66.07;97348.31;29395;242;63009;-69
2023/10/10 02:34:36;;;;;;;0.50;0.50;;;;;;;15.54;65.71;97349.94;29395;258;63005;-67
2023/10/10 02:35:26;;;;;;;0.50;0.50;;;;;;;15.55;66.22;97353.47;29395;249;63009;-70
2023/10/10 02:35:58;;;;;;;0.50;0.50;;;;;;;15.56;65.97;97349.63;29395;223;63005;-69
2023/10/10 02:36:30;;;;;;;0.50;0.50;;;;;;;15.57;66.38;97349.34;29395;260;63009;-69
2023/10/10 02:37:41;;;;;;;0.40;0.40;;;;;;;15.55;66.62;97356.22;29395;206;63005;-69
2023/10/10 02:38:12;;;;;;;0.50;0.50;;;;;;;15.46;68.07;97358.09;29395;202;63009;-69
2023/10/10 02:38:55;;;;;;;0.50;0.50;;;;;;;15.43;67.77;97352.12;29394;340;64009;-57
2023/10/10 02:39:29;;;;;;;0.50;0.50;;;;;;;15.42;67.05;97355.97;29395;313;63009;-58
2023/10/10 02:40:16;;;;;;;0.50;0.50;;;;;;;15.43;67.64;97354.06;29395;326;63004;-57
2023/10/10 02:40:53;;;;;;;0.45;0.45;;;;;;;15.41;67.35;97362.56;29395;199;63008;-57
2023/10/10 02:41:38;;;;;;;0.50;0.50;;;;;;;15.41;67.90;97359.03;29395;206;63017;-57
2023/10/10 02:42:18;;;;;;;0.47;0.47;;;;;;;15.40;67.20;97358.22;29395;214;63009;-70
2023/10/10 02:44:57;;;;;;;0.40;0.40;;;;;;;15.52;66.17;97345.91;29394;210;64009;-57
2023/10/10 02:45:28;;;;;;;0.50;0.50;;;;;;;15.53;65.97;97342.06;29395;248;63009;-69
2023/10/10 02:46:00;;;;;;;0.40;0.40;;;;;;;15.54;65.52;97351.88;29395;202;63004;-57
2023/10/10 02:46:35;;;;;;;0.40;0.40;;;;;;;15.54;65.75;97343.66;29395;256;63009;-58
2023/10/10 02:47:06;;;;;;;0.40;0.40;;;;;;;15.54;65.61;97349.13;29395;214;63004;-69
2023/10/10 02:47:44;;;;;;;0.50;0.50;;;;;;;15.56;65.65;97346.91;29395;216;63009;-58
2023/10/10 02:48:20;;;;;;;0.40;0.40;;;;;;;15.55;65.19;97350.75;29395;329;63017;-57
2023/10/10 02:48:55;;;;;;;0.50;0.50;;;;;;;15.56;65.32;97347.72;29395;218;63008;-69
2023/10/10 02:49:30;;;;;;;0.40;0.40;;;;;;;15.58;64.95;97350.97;29395;221;63005;-56
2023/10/10 02:50:22;;;;;;;0.40;0.40;;;;;;;15.59;64.95;97340.81;29394;197;64014;-56
2023/10/10 02:50:53;;;;;;;0.40;0.40;;;;;;;15.59;65.00;97340.81;29395;363;63005;-57
2023/10/10 02:51:27;;;;;;;0.40;0.40;;;;;;;15.58;65.16;97345.50;29395;352;63009;-57
2023/10/10 02:52:05;;;;;;;0.50;0.50;;;;;;;15.57;64.89;97346.63;29395;207;63005;-57
2023/10/10 02:52:45;;;;;;;0.50;0.50;;;;;;;15.57;65.23;97343.88;29395;243;63009;-56
2023/10/10 02:53:19;;;;;;;0.40;0.40;;;;;;;15.56;64.92;97342.25;29395;226;63004;-57
2023/10/10 02:53:51;;;;;;;0.50;0.50;;;;;;;15.57;65.32;97343.06;29395;237;63009;-58
2023/10/10 02:55:16;;;;;;;0.40;0.40;;;;;;;15.57;65.25;97343.88;29416;229;64013;-57
2023/10/10 02:55:50;;;;;;;0.40;0.40;;;;;;;15.57;65.34;97348.53;29395;213;63004;-57
2023/10/10 02:56:24;;;;;;;0.40;0.40;;;;;;;15.54;65.19;97343.66;29395;242;63008;-57
2023/10/10 02:57:26;;;;;;;0.40;0.40;;;;;;;15.52;65.25;97348.63;29395;245;63005;-57
2023/10/10 02:57:53;;;;;;;0.40;0.40;;;;;;;15.51;65.40;97345.09;29395;230;63009;-56
2023/10/10 02:58:28;;;;;;;0.40;0.40;;;;;;;15.49;65.41;97341.87;29395;215;63005;-57
2023/10/10 02:59:04;;;;;;;0.43;0.43;;;;;;;15.50;65.46;97342.69;29395;235;63009;-57
2023/10/10 02:59:38;;;;;;;0.40;0.40;;;;;;;15.49;65.28;97341.06;29395;202;63005;-58
2023/10/10 03:00:26;;;;;;;0.60;0.60;;;;;;;15.48;65.46;97342.97;29395;371;63009;-68
2023/10/10 03:00:58;;;;;;;0.40;0.40;;;;;;;15.48;65.33;97344.91;29394;260;63999;-72
2023/10/10 03:02:30;;;;;;;0.47;0.47;;;;;;;15.46;65.54;97338.94;29395;223;63004;-57
2023/10/10 03:03:03;;;;;;;0.47;0.47;;;;;;;15.46;65.50;97338.94;29395;207;63024;-69
2023/10/10 03:03:39;;;;;;;0.40;0.40;;;;;;;15.46;65.58;97347.97;29395;219;63004;-57
2023/10/10 03:04:16;;;;;;;0.40;0.40;;;;;;;15.49;65.32;97343.78;29395;214;63009;-56
2023/10/10 03:05:51;;;;;;;0.40;0.40;;;;;;;15.48;65.36;97345.72;29394;216;64013;-57
2023/10/10 03:06:28;;;;;;;0.45;0.45;;;;;;;15.46;65.27;97334.28;29395;213;63005;-57
2023/10/10 03:07:05;;;;;;;0.40;0.40;;;;;;;15.48;65.42;97345.72;29395;260;63009;-71